Amsterdam, MT

7:59 PM MDT on September 01, 2014 (GMT -0600)
Bridgewater Ranch, West Stagecoach Trail, Amsterdam, Montana | Change Station
CLOSE
Current Station
Personal Weather Station
Location: Manhattan, MT
Elevation: 4450 ft
Nearby Weather Stations

Elev 4450 ft 45.79 °N, 111.36 °W | Updated 3 seconds ago

Clear
Clear
61.7 °F
Feels Like 61.7 °F
N
4.0
Wind Variable Wind from SSW
Gusts 6.0 mph

Today
High -- | Low -- °F
--% Chance of Precip.
Yesterday
High -- | Low -- °F
Precip. -- in
6:46 AM 8:03 PM
Waxing Crescent, 46% visible
Pressure 29.90 in
Visibility 10.0 miles
Clouds Clear
Dew Point 27 °F
Humidity 27%
Rainfall 0.00 in
Snow Depth Not available.
UV 1 out of 12
Pollen 6.70 out of 12
Air Quality Not available.
Flu Activity Not available.
METAR KBZN 020056Z 00000KT 10SM CLR 21/02 A2998 RMK AO2 SLP125 T02060017

More Conditions Fewer Conditions

Pressure 29.90 in
Visibility 10.0 miles
Clouds Clear
Dew Point 27 °F
Humidity 27%
Rainfall 0.00 in
Snow Depth Not available.
UV 1 out of 12
Pollen 6.70 out of 12
Air Quality Not available.
Flu Activity Not available.
METAR KBZN 020056Z 00000KT 10SM CLR 21/02 A2998 RMK AO2 SLP125 T02060017

More Conditions Fewer Conditions

10-Day Weather Forecast

Almanac

Astronomy

Sep. 01, 2014 Rise Set
Actual Time 6:46 AM MDT 8:03 PM MDT
Civil Twilight 6:15 AM MDT 8:33 PM MDT
Nautical Twilight 5:38 AM MDT 9:10 PM MDT
Astronomical Twilight 4:59 AM MDT 9:50 PM MDT
Moon 1:56 PM MDT (9/1) 11:46 PM MDT (9/1)
Length of Visible Light 14h 18m
Length of Day
13h 16m
Tomorrow will be 3m 6s shorter.
Waxing Crescent, 46% of the Moon is Illuminated
Today
Waxing Crescent
Sep 2
First Quarter
Sep 8
Full
Sep 15
Last Quarter
Sep 24
New

Today's Extremes

State Highs State Lows

Community

WunderPhotos

Upload Photos

1,749,476 photos uploaded!

Nearby

Snow Depth

Station Depth Elevation
Brackett Creek 0 in 7320 ft
Shower Falls 0 in 8100 ft
Lone Mountain 0 in 8880 ft
Tizer Basin 0 in 6840 ft
Porcupine 1 in 6500 ft

Earthquake Activity

City Distance Mag. Time & Date
No recent earthquake activity has been reported nearby.
Minimum magnitude displayed is 2.5.

Coastal Water Temperatures

Place Temperature
No Stations Reporting

Nearby Weather Stations